DAL1610 KJFK-MSLP
Flight info
| Callsign | DAL1610 |
|---|---|
| Flight time | N/A |
| Altitude | 34000 |
| Route | DCT RBV Q430 COPES Q75 GSO DCT CHS DCT ORL DCT RSW/N0467F330 DCT KARTR/N0466F340 Q81 TUNSL Y196 LULLS Y262 MAXIM UG765 CZM UB764 MORAM MORAM2M |
| Aircraft | A321/M-V/N |
Departure
| Time | 2026-05-08 10:27 |
|---|---|
| Airport | John F. Kennedy International Airport (KJFK) |
Arrival
| Time | N/A |
|---|---|
| Airport | El Salvador International Airport Saint Óscar Arnulfo Romero y Galdámez (MSLP) |
| Time | Latitude | Longitude | Altitude | Speed | Heading |
|---|---|---|---|---|---|
| 2026-05-08 09:50 | 40.64188 | -73.78188 | 28 ft | 0 kts | 270° |
| 2026-05-08 10:15 | 40.64188 | -73.78187 | 23 ft | 0 kts | 270° |
| 2026-05-08 10:17 | 40.64188 | -73.78166 | 23 ft | 4 kts | 266° |
| 2026-05-08 10:17 | 40.64191 | -73.78131 | 23 ft | 4 kts | 263° |
| 2026-05-08 10:17 | 40.64192 | -73.78096 | 23 ft | 3 kts | 276° |
| 2026-05-08 10:18 | 40.64191 | -73.78069 | 23 ft | 4 kts | 262° |
| 2026-05-08 10:18 | 40.64196 | -73.78044 | 24 ft | 2 kts | 241° |
| 2026-05-08 10:18 | 40.64178 | -73.78062 | 25 ft | 4 kts | 197° |
| 2026-05-08 10:18 | 40.64154 | -73.78054 | 25 ft | 4 kts | 154° |
| 2026-05-08 10:19 | 40.64132 | -73.78038 | 24 ft | 4 kts | 151° |
| 2026-05-08 10:19 | 40.64108 | -73.78021 | 23 ft | 4 kts | 151° |
| 2026-05-08 10:19 | 40.64084 | -73.78003 | 23 ft | 4 kts | 150° |
| 2026-05-08 10:20 | 40.64053 | -73.77980 | 23 ft | 2 kts | 150° |
| 2026-05-08 10:21 | 40.64048 | -73.77977 | 23 ft | 5 kts | 153° |
| 2026-05-08 10:22 | 40.63970 | -73.77948 | 23 ft | 18 kts | 169° |
| 2026-05-08 10:22 | 40.63839 | -73.77923 | 23 ft | 18 kts | 172° |
| 2026-05-08 10:22 | 40.63719 | -73.77904 | 23 ft | 16 kts | 174° |
| 2026-05-08 10:22 | 40.63612 | -73.77887 | 23 ft | 14 kts | 166° |
| 2026-05-08 10:23 | 40.63535 | -73.77825 | 22 ft | 12 kts | 164° |
| 2026-05-08 10:23 | 40.63459 | -73.77864 | 26 ft | 14 kts | 212° |
| 2026-05-08 10:23 | 40.63360 | -73.77905 | 24 ft | 16 kts | 153° |
| 2026-05-08 10:23 | 40.63308 | -73.77807 | 27 ft | 11 kts | 119° |
| 2026-05-08 10:24 | 40.63262 | -73.77706 | 27 ft | 15 kts | 120° |
| 2026-05-08 10:24 | 40.63212 | -73.77596 | 29 ft | 12 kts | 121° |
| 2026-05-08 10:24 | 40.63158 | -73.77478 | 30 ft | 21 kts | 121° |
| 2026-05-08 10:24 | 40.63080 | -73.77304 | 27 ft | 22 kts | 120° |
| 2026-05-08 10:25 | 40.63011 | -73.77151 | 28 ft | 11 kts | 121° |
| 2026-05-08 10:25 | 40.62955 | -73.77089 | 23 ft | 11 kts | 178° |
| 2026-05-08 10:25 | 40.62889 | -73.77133 | 24 ft | 13 kts | 214° |
| 2026-05-08 10:25 | 40.62827 | -73.77220 | 23 ft | 13 kts | 268° |
| 2026-05-08 10:26 | 40.62836 | -73.77262 | 25 ft | 0 kts | 296° |
| 2026-05-08 10:26 | 40.62891 | -73.77382 | 27 ft | 47 kts | 301° |
| 2026-05-08 10:26 | 40.63183 | -73.78024 | 27 ft | 112 kts | 301° |
| 2026-05-08 10:26 | 40.63665 | -73.79086 | 25 ft | 160 kts | 301° |
| 2026-05-08 10:27 | 40.64291 | -73.80464 | 225 ft | 182 kts | 301° |
| 2026-05-08 10:27 | 40.64949 | -73.81891 | 736 ft | 187 kts | 302° |
| 2026-05-08 10:27 | 40.65486 | -73.83514 | 1223 ft | 201 kts | 282° |
| 2026-05-08 10:27 | 40.65469 | -73.85413 | 1717 ft | 216 kts | 256° |
| 2026-05-08 10:28 | 40.64775 | -73.87279 | 1887 ft | 242 kts | 237° |
| 2026-05-08 10:28 | 40.63701 | -73.89051 | 2342 ft | 254 kts | 228° |
| 2026-05-08 10:28 | 40.62451 | -73.90712 | 3044 ft | 255 kts | 229° |
| 2026-05-08 10:28 | 40.61224 | -73.92384 | 3829 ft | 254 kts | 231° |
| 2026-05-08 10:29 | 40.60012 | -73.94085 | 4513 ft | 256 kts | 231° |
| 2026-05-08 10:29 | 40.58796 | -73.95812 | 5185 ft | 258 kts | 231° |
| 2026-05-08 10:29 | 40.57570 | -73.97547 | 5880 ft | 259 kts | 231° |
| 2026-05-08 10:29 | 40.56336 | -73.99284 | 6571 ft | 260 kts | 230° |
| 2026-05-08 10:30 | 40.55096 | -74.01025 | 7204 ft | 263 kts | 231° |
| 2026-05-08 10:30 | 40.53837 | -74.02797 | 7767 ft | 267 kts | 231° |
| 2026-05-08 10:30 | 40.52565 | -74.04581 | 8395 ft | 269 kts | 231° |
| 2026-05-08 10:30 | 40.51284 | -74.06378 | 9034 ft | 270 kts | 232° |
| 2026-05-08 10:31 | 40.49998 | -74.08186 | 9669 ft | 272 kts | 232° |
| 2026-05-08 10:31 | 40.48701 | -74.10006 | 10200 ft | 277 kts | 232° |
| 2026-05-08 10:31 | 40.47335 | -74.11922 | 10306 ft | 296 kts | 232° |
| 2026-05-08 10:31 | 40.45884 | -74.13959 | 10438 ft | 314 kts | 232° |
| 2026-05-08 10:32 | 40.44348 | -74.16109 | 10560 ft | 331 kts | 231° |
| 2026-05-08 10:32 | 40.42729 | -74.18369 | 10686 ft | 348 kts | 231° |
| 2026-05-08 10:32 | 40.41041 | -74.20718 | 10998 ft | 357 kts | 231° |
| 2026-05-08 10:32 | 40.39328 | -74.23092 | 11542 ft | 360 kts | 231° |
| 2026-05-08 10:33 | 40.37604 | -74.25483 | 12123 ft | 361 kts | 231° |
| 2026-05-08 10:33 | 40.35875 | -74.27878 | 12719 ft | 362 kts | 231° |
| 2026-05-08 10:33 | 40.34143 | -74.30280 | 13309 ft | 363 kts | 232° |
| 2026-05-08 10:33 | 40.32401 | -74.32688 | 13866 ft | 364 kts | 232° |
| 2026-05-08 10:34 | 40.30654 | -74.35105 | 14339 ft | 366 kts | 232° |
| 2026-05-08 10:34 | 40.28904 | -74.37530 | 14789 ft | 368 kts | 232° |
| 2026-05-08 10:34 | 40.27145 | -74.39971 | 15222 ft | 369 kts | 232° |
| 2026-05-08 10:34 | 40.25402 | -74.42380 | 15706 ft | 369 kts | 232° |
| 2026-05-08 10:35 | 40.23608 | -74.44853 | 16177 ft | 370 kts | 232° |
| 2026-05-08 10:35 | 40.22015 | -74.47415 | 16608 ft | 366 kts | 241° |
| 2026-05-08 10:35 | 40.20804 | -74.50317 | 17038 ft | 363 kts | 251° |
| 2026-05-08 10:35 | 40.20025 | -74.53436 | 17474 ft | 360 kts | 260° |
| 2026-05-08 10:36 | 40.19672 | -74.56675 | 17904 ft | 360 kts | 266° |
| 2026-05-08 10:36 | 40.19424 | -74.59944 | 18322 ft | 362 kts | 266° |
| 2026-05-08 10:36 | 40.19171 | -74.63217 | 18697 ft | 362 kts | 265° |
| 2026-05-08 10:36 | 40.18914 | -74.66502 | 19093 ft | 363 kts | 265° |
| 2026-05-08 10:37 | 40.18655 | -74.69784 | 19493 ft | 363 kts | 265° |
| 2026-05-08 10:37 | 40.18392 | -74.73072 | 19892 ft | 364 kts | 265° |
| 2026-05-08 10:37 | 40.18130 | -74.76357 | 20277 ft | 364 kts | 265° |
| 2026-05-08 10:37 | 40.17866 | -74.79653 | 20661 ft | 364 kts | 265° |
| 2026-05-08 10:38 | 40.17602 | -74.82952 | 21044 ft | 365 kts | 265° |
| 2026-05-08 10:38 | 40.17337 | -74.86251 | 21415 ft | 365 kts | 265° |
| 2026-05-08 10:38 | 40.17069 | -74.89556 | 21776 ft | 366 kts | 265° |
| 2026-05-08 10:38 | 40.16804 | -74.92866 | 22141 ft | 366 kts | 265° |
| 2026-05-08 10:39 | 40.16537 | -74.96181 | 22497 ft | 367 kts | 265° |
| 2026-05-08 10:39 | 40.16268 | -74.99499 | 22850 ft | 368 kts | 265° |
| 2026-05-08 10:39 | 40.15995 | -75.02827 | 23236 ft | 368 kts | 265° |
| 2026-05-08 10:39 | 40.15719 | -75.06159 | 23550 ft | 369 kts | 265° |
| 2026-05-08 10:40 | 40.15442 | -75.09493 | 23851 ft | 369 kts | 265° |
| 2026-05-08 10:40 | 40.15163 | -75.12831 | 24109 ft | 370 kts | 265° |
| 2026-05-08 10:40 | 40.14883 | -75.16182 | 24362 ft | 371 kts | 265° |
| 2026-05-08 10:40 | 40.14602 | -75.19537 | 24606 ft | 372 kts | 265° |
| 2026-05-08 10:41 | 40.14318 | -75.22901 | 24852 ft | 373 kts | 265° |
| 2026-05-08 10:41 | 40.14033 | -75.26272 | 25093 ft | 374 kts | 265° |
| 2026-05-08 10:41 | 40.13745 | -75.29661 | 25334 ft | 375 kts | 265° |
| 2026-05-08 10:41 | 40.13429 | -75.33047 | 25573 ft | 377 kts | 262° |
| 2026-05-08 10:42 | 40.12714 | -75.36359 | 25854 ft | 381 kts | 252° |
| 2026-05-08 10:42 | 40.11499 | -75.39458 | 26199 ft | 387 kts | 243° |
| 2026-05-08 10:42 | 40.09805 | -75.42233 | 26524 ft | 395 kts | 235° |
| 2026-05-08 10:42 | 40.07918 | -75.44836 | 26841 ft | 395 kts | 235° |
| 2026-05-08 10:43 | 40.06028 | -75.47441 | 27145 ft | 394 kts | 235° |
| 2026-05-08 10:43 | 40.04147 | -75.50035 | 27468 ft | 394 kts | 235° |
| 2026-05-08 10:43 | 40.02270 | -75.52626 | 27782 ft | 392 kts | 235° |
| 2026-05-08 10:43 | 40.00398 | -75.55209 | 28106 ft | 391 kts | 235° |
| 2026-05-08 10:44 | 39.98525 | -75.57794 | 28294 ft | 392 kts | 235° |
| 2026-05-08 10:44 | 39.96653 | -75.60378 | 28553 ft | 392 kts | 235° |
| 2026-05-08 10:44 | 39.94781 | -75.62958 | 28833 ft | 391 kts | 235° |
| 2026-05-08 10:44 | 39.92913 | -75.65533 | 29125 ft | 391 kts | 235° |
| 2026-05-08 10:45 | 39.91069 | -75.68123 | 29413 ft | 389 kts | 237° |
| 2026-05-08 10:45 | 39.89319 | -75.70783 | 29696 ft | 386 kts | 238° |
| 2026-05-08 10:45 | 39.87636 | -75.73493 | 29965 ft | 384 kts | 239° |
| 2026-05-08 10:45 | 39.85985 | -75.76220 | 30210 ft | 383 kts | 240° |
| 2026-05-08 10:46 | 39.84340 | -75.78944 | 30460 ft | 382 kts | 240° |
| 2026-05-08 10:46 | 39.82686 | -75.81654 | 30680 ft | 382 kts | 240° |
| 2026-05-08 10:46 | 39.81021 | -75.84348 | 30924 ft | 382 kts | 239° |
| 2026-05-08 10:46 | 39.79351 | -75.87023 | 31150 ft | 381 kts | 239° |
| 2026-05-08 10:47 | 39.77670 | -75.89692 | 31384 ft | 381 kts | 239° |
| 2026-05-08 10:47 | 39.75991 | -75.92349 | 31620 ft | 380 kts | 239° |
| 2026-05-08 10:47 | 39.74316 | -75.94999 | 31848 ft | 379 kts | 239° |
| 2026-05-08 10:47 | 39.72641 | -75.97652 | 31991 ft | 379 kts | 239° |
| 2026-05-08 10:48 | 39.71535 | -75.99403 | 32021 ft | 379 kts | 239° |
| 2026-05-08 10:48 | 39.68201 | -76.04698 | 32024 ft | 378 kts | 239° |
| 2026-05-08 10:49 | 39.64876 | -76.09990 | 32025 ft | 378 kts | 239° |
| 2026-05-08 10:49 | 39.61544 | -76.15268 | 32038 ft | 379 kts | 239° |
| 2026-05-08 10:50 | 39.58170 | -76.20534 | 32026 ft | 380 kts | 239° |
| 2026-05-08 10:50 | 39.54201 | -76.26609 | 32027 ft | 380 kts | 238° |
| 2026-05-08 10:51 | 39.51337 | -76.30982 | 32027 ft | 380 kts | 238° |
| 2026-05-08 10:51 | 39.47925 | -76.36207 | 32026 ft | 380 kts | 238° |
| 2026-05-08 10:52 | 39.44421 | -76.41358 | 31982 ft | 382 kts | 236° |
| 2026-05-08 10:52 | 39.40671 | -76.46240 | 32024 ft | 383 kts | 234° |
| 2026-05-08 10:53 | 39.36874 | -76.51059 | 32085 ft | 382 kts | 234° |
| 2026-05-08 10:53 | 39.33114 | -76.55903 | 32064 ft | 381 kts | 235° |
| 2026-05-08 10:54 | 39.29392 | -76.60774 | 32028 ft | 381 kts | 235° |
| 2026-05-08 10:54 | 39.25670 | -76.65649 | 31977 ft | 381 kts | 235° |
| 2026-05-08 10:55 | 39.21967 | -76.70459 | 32026 ft | 376 kts | 235° |
| 2026-05-08 10:55 | 39.18279 | -76.75235 | 32026 ft | 376 kts | 235° |
| 2026-05-08 10:56 | 39.14618 | -76.79976 | 32072 ft | 376 kts | 235° |
| 2026-05-08 10:56 | 39.10929 | -76.84744 | 32073 ft | 376 kts | 235° |
| 2026-05-08 10:57 | 39.07233 | -76.89512 | 32062 ft | 377 kts | 235° |
| 2026-05-08 10:57 | 39.01721 | -76.96606 | 32062 ft | 371 kts | 236° |
| 2026-05-08 10:58 | 38.98076 | -77.01295 | 32063 ft | 370 kts | 236° |
| 2026-05-08 10:58 | 38.94444 | -77.05978 | 32045 ft | 370 kts | 236° |
| 2026-05-08 10:59 | 38.90815 | -77.10661 | 32044 ft | 370 kts | 236° |
| 2026-05-08 10:59 | 38.87176 | -77.15339 | 32044 ft | 370 kts | 236° |
| 2026-05-08 11:00 | 38.83543 | -77.19981 | 32021 ft | 367 kts | 236° |
| 2026-05-08 11:00 | 38.79928 | -77.24594 | 32020 ft | 367 kts | 236° |
| 2026-05-08 11:01 | 38.76312 | -77.29213 | 32025 ft | 367 kts | 236° |
| 2026-05-08 11:01 | 38.72694 | -77.33827 | 32042 ft | 368 kts | 235° |
| 2026-05-08 11:02 | 38.66984 | -77.40503 | 32055 ft | 372 kts | 233° |
| 2026-05-08 11:03 | 38.63123 | -77.44872 | 32059 ft | 370 kts | 233° |
| 2026-05-08 11:03 | 38.59300 | -77.49255 | 32074 ft | 369 kts | 234° |
| 2026-05-08 11:04 | 38.55495 | -77.53644 | 32075 ft | 369 kts | 234° |
| 2026-05-08 11:04 | 38.51686 | -77.58035 | 32073 ft | 369 kts | 234° |
| 2026-05-08 11:05 | 38.47867 | -77.62422 | 32072 ft | 370 kts | 234° |
| 2026-05-08 11:05 | 38.44037 | -77.66802 | 32070 ft | 370 kts | 234° |
| 2026-05-08 11:06 | 38.40213 | -77.71184 | 32069 ft | 370 kts | 234° |
| 2026-05-08 11:06 | 38.36413 | -77.75537 | 32071 ft | 369 kts | 234° |
| 2026-05-08 11:07 | 38.32584 | -77.79906 | 32071 ft | 370 kts | 234° |
| 2026-05-08 11:07 | 38.28748 | -77.84268 | 32075 ft | 370 kts | 234° |
| 2026-05-08 11:08 | 38.24907 | -77.88625 | 32053 ft | 369 kts | 234° |
| 2026-05-08 11:08 | 38.21080 | -77.92982 | 32081 ft | 369 kts | 234° |
| 2026-05-08 11:09 | 38.17249 | -77.97334 | 32084 ft | 369 kts | 234° |
| 2026-05-08 11:09 | 38.13414 | -78.01688 | 32079 ft | 370 kts | 234° |
| 2026-05-08 11:10 | 38.09574 | -78.06030 | 32078 ft | 370 kts | 234° |
| 2026-05-08 11:10 | 38.05726 | -78.10371 | 32080 ft | 370 kts | 234° |
| 2026-05-08 11:11 | 38.01878 | -78.14719 | 32082 ft | 371 kts | 234° |
| 2026-05-08 11:11 | 37.97827 | -78.18892 | 32079 ft | 378 kts | 230° |
| 2026-05-08 11:12 | 37.93579 | -78.22856 | 32042 ft | 380 kts | 230° |
| 2026-05-08 11:12 | 37.89321 | -78.26809 | 32059 ft | 379 kts | 230° |
| 2026-05-08 11:13 | 37.85099 | -78.30797 | 32064 ft | 378 kts | 230° |
| 2026-05-08 11:13 | 37.80901 | -78.34810 | 32059 ft | 378 kts | 230° |
| 2026-05-08 11:14 | 37.76699 | -78.38821 | 32052 ft | 378 kts | 230° |
| 2026-05-08 11:14 | 37.72489 | -78.42818 | 32067 ft | 379 kts | 230° |
| 2026-05-08 11:15 | 37.68273 | -78.46810 | 32066 ft | 379 kts | 230° |
| 2026-05-08 11:15 | 37.64055 | -78.50797 | 32073 ft | 379 kts | 230° |
| 2026-05-08 11:16 | 37.59833 | -78.54778 | 32072 ft | 379 kts | 230° |
| 2026-05-08 11:16 | 37.55614 | -78.58759 | 32073 ft | 379 kts | 230° |
| 2026-05-08 11:17 | 37.51395 | -78.62739 | 32074 ft | 379 kts | 230° |
| 2026-05-08 11:17 | 37.47177 | -78.66719 | 32074 ft | 379 kts | 230° |
| 2026-05-08 11:18 | 37.42952 | -78.70687 | 32075 ft | 379 kts | 230° |
| 2026-05-08 11:18 | 37.38726 | -78.74645 | 32072 ft | 379 kts | 230° |
| 2026-05-08 11:19 | 37.34502 | -78.78593 | 32073 ft | 378 kts | 230° |
| 2026-05-08 11:19 | 37.30279 | -78.82540 | 32074 ft | 378 kts | 230° |
| 2026-05-08 11:20 | 37.26069 | -78.86482 | 32070 ft | 378 kts | 230° |
| 2026-05-08 11:20 | 37.21847 | -78.90426 | 32069 ft | 378 kts | 230° |
| 2026-05-08 11:21 | 37.17630 | -78.94358 | 32068 ft | 376 kts | 230° |
| 2026-05-08 11:21 | 37.13437 | -78.98243 | 32072 ft | 374 kts | 230° |
| 2026-05-08 11:22 | 37.09280 | -79.02098 | 32075 ft | 374 kts | 230° |
| 2026-05-08 11:22 | 37.05101 | -79.05976 | 32081 ft | 374 kts | 230° |
| 2026-05-08 11:23 | 37.00920 | -79.09857 | 32074 ft | 375 kts | 230° |
| 2026-05-08 11:23 | 36.96726 | -79.13733 | 32026 ft | 374 kts | 230° |
| 2026-05-08 11:24 | 36.92551 | -79.17589 | 32071 ft | 373 kts | 230° |
| 2026-05-08 11:24 | 36.88380 | -79.21436 | 32077 ft | 373 kts | 230° |
| 2026-05-08 11:25 | 36.84207 | -79.25275 | 32081 ft | 373 kts | 230° |
| 2026-05-08 11:25 | 36.80033 | -79.29120 | 32085 ft | 373 kts | 230° |
| 2026-05-08 11:26 | 36.75856 | -79.32960 | 32091 ft | 373 kts | 230° |
| 2026-05-08 11:26 | 36.71674 | -79.36790 | 32091 ft | 372 kts | 230° |
| 2026-05-08 11:27 | 36.67502 | -79.40611 | 32100 ft | 372 kts | 230° |
| 2026-05-08 11:27 | 36.63328 | -79.44430 | 32098 ft | 373 kts | 230° |
| 2026-05-08 11:28 | 36.59148 | -79.48243 | 32101 ft | 373 kts | 230° |
| 2026-05-08 11:28 | 36.54962 | -79.52066 | 32070 ft | 373 kts | 230° |
| 2026-05-08 11:29 | 36.50778 | -79.55881 | 32072 ft | 373 kts | 230° |
| 2026-05-08 11:29 | 36.46589 | -79.59688 | 32073 ft | 373 kts | 230° |
| 2026-05-08 11:30 | 36.42406 | -79.63494 | 32075 ft | 373 kts | 230° |
| 2026-05-08 11:30 | 36.38243 | -79.67270 | 32076 ft | 373 kts | 230° |
| 2026-05-08 11:31 | 36.34048 | -79.71064 | 32109 ft | 373 kts | 230° |
| 2026-05-08 11:31 | 36.29856 | -79.74857 | 32059 ft | 373 kts | 229° |
| 2026-05-08 11:32 | 36.25651 | -79.78662 | 32102 ft | 375 kts | 229° |
| 2026-05-08 11:32 | 36.21437 | -79.82463 | 32087 ft | 374 kts | 229° |
| 2026-05-08 11:33 | 36.17223 | -79.86254 | 32090 ft | 374 kts | 229° |
| 2026-05-08 11:33 | 36.13012 | -79.90041 | 32091 ft | 374 kts | 229° |
| 2026-05-08 11:34 | 36.08805 | -79.93821 | 32092 ft | 374 kts | 229° |
| 2026-05-08 11:34 | 36.06624 | -79.95630 | 32062 ft | 385 kts | 222° |
| 2026-05-08 11:34 | 36.04101 | -79.96987 | 32093 ft | 408 kts | 212° |
| 2026-05-08 11:34 | 36.01238 | -79.97705 | 32090 ft | 434 kts | 200° |
| 2026-05-08 11:35 | 35.98168 | -79.97818 | 32091 ft | 444 kts | 197° |
| 2026-05-08 11:35 | 35.93020 | -79.97893 | 32087 ft | 445 kts | 197° |
| 2026-05-08 11:36 | 35.86830 | -79.97986 | 32083 ft | 445 kts | 197° |
| 2026-05-08 11:36 | 35.80644 | -79.98110 | 32100 ft | 445 kts | 197° |
| 2026-05-08 11:37 | 35.74437 | -79.98248 | 32126 ft | 446 kts | 197° |
| 2026-05-08 11:37 | 35.68227 | -79.98377 | 32129 ft | 446 kts | 197° |
| 2026-05-08 11:38 | 35.62017 | -79.98492 | 32129 ft | 446 kts | 197° |
| 2026-05-08 11:38 | 35.55805 | -79.98613 | 32117 ft | 446 kts | 197° |
| 2026-05-08 11:39 | 35.49600 | -79.98735 | 32132 ft | 446 kts | 197° |
| 2026-05-08 11:39 | 35.43384 | -79.98863 | 32136 ft | 446 kts | 197° |
| 2026-05-08 11:40 | 35.37176 | -79.98991 | 32131 ft | 446 kts | 197° |
| 2026-05-08 11:40 | 35.30965 | -79.99115 | 32125 ft | 447 kts | 196° |
| 2026-05-08 11:41 | 35.24745 | -79.99231 | 32118 ft | 447 kts | 196° |
| 2026-05-08 11:41 | 35.18530 | -79.99354 | 32107 ft | 447 kts | 196° |
| 2026-05-08 11:42 | 35.12316 | -79.99481 | 32112 ft | 447 kts | 196° |
| 2026-05-08 11:42 | 35.06105 | -79.99607 | 32115 ft | 446 kts | 195° |
| 2026-05-08 11:43 | 34.99933 | -79.99720 | 32120 ft | 446 kts | 195° |
| 2026-05-08 11:43 | 34.93734 | -79.99835 | 32116 ft | 446 kts | 195° |
| 2026-05-08 11:44 | 34.87530 | -79.99964 | 32109 ft | 446 kts | 196° |
| 2026-05-08 11:44 | 34.81324 | -80.00096 | 32077 ft | 446 kts | 195° |
| 2026-05-08 11:45 | 34.75099 | -80.00225 | 32103 ft | 448 kts | 194° |
| 2026-05-08 11:45 | 34.68865 | -80.00345 | 32100 ft | 448 kts | 194° |
| 2026-05-08 11:46 | 34.62632 | -80.00459 | 32099 ft | 448 kts | 194° |
| 2026-05-08 11:46 | 34.56393 | -80.00574 | 32078 ft | 449 kts | 194° |
| 2026-05-08 11:47 | 34.50128 | -80.00698 | 32095 ft | 451 kts | 194° |
| 2026-05-08 11:47 | 34.43860 | -80.00823 | 32100 ft | 451 kts | 194° |
| 2026-05-08 11:48 | 34.37589 | -80.00949 | 32098 ft | 451 kts | 194° |
| 2026-05-08 11:48 | 34.31309 | -80.01075 | 32047 ft | 451 kts | 194° |
| 2026-05-08 11:49 | 34.25004 | -80.01203 | 32095 ft | 454 kts | 194° |
| 2026-05-08 11:49 | 34.18683 | -80.01321 | 32092 ft | 454 kts | 194° |
| 2026-05-08 11:50 | 34.12359 | -80.01439 | 32091 ft | 454 kts | 194° |
| 2026-05-08 11:50 | 34.06043 | -80.01566 | 32050 ft | 454 kts | 194° |
| 2026-05-08 11:51 | 33.99725 | -80.01690 | 32088 ft | 454 kts | 194° |
| 2026-05-08 11:51 | 33.93407 | -80.01803 | 32086 ft | 454 kts | 194° |
| 2026-05-08 11:52 | 33.87094 | -80.01923 | 32082 ft | 454 kts | 194° |
| 2026-05-08 11:52 | 33.80783 | -80.02052 | 32027 ft | 454 kts | 193° |
| 2026-05-08 11:53 | 33.74513 | -80.02164 | 32101 ft | 453 kts | 194° |
| 2026-05-08 11:53 | 33.68214 | -80.02285 | 32102 ft | 453 kts | 194° |
| 2026-05-08 11:54 | 33.61916 | -80.02411 | 32093 ft | 453 kts | 194° |
| 2026-05-08 11:54 | 33.55619 | -80.02523 | 32092 ft | 453 kts | 194° |
| 2026-05-08 11:55 | 33.49322 | -80.02644 | 32090 ft | 452 kts | 193° |
| 2026-05-08 11:55 | 33.43022 | -80.02770 | 32083 ft | 453 kts | 193° |
| 2026-05-08 11:56 | 33.36723 | -80.02890 | 32073 ft | 453 kts | 193° |
| 2026-05-08 11:56 | 33.30430 | -80.03006 | 32080 ft | 453 kts | 193° |
| 2026-05-08 11:57 | 33.24125 | -80.03130 | 32088 ft | 453 kts | 193° |
| 2026-05-08 11:57 | 33.17822 | -80.03250 | 32079 ft | 453 kts | 193° |
| 2026-05-08 11:58 | 33.11510 | -80.03368 | 32087 ft | 453 kts | 193° |
| 2026-05-08 11:58 | 33.05202 | -80.03487 | 32067 ft | 453 kts | 193° |
| 2026-05-08 11:59 | 32.95737 | -80.03669 | 32053 ft | 453 kts | 193° |
| 2026-05-08 11:59 | 32.89466 | -80.03954 | 32054 ft | 442 kts | 200° |
| 2026-05-08 12:00 | 32.86505 | -80.04675 | 32050 ft | 430 kts | 207° |
| 2026-05-08 12:00 | 32.83653 | -80.05578 | 32054 ft | 430 kts | 207° |
| 2026-05-08 12:00 | 32.77829 | -80.07405 | 32083 ft | 430 kts | 207° |
| 2026-05-08 12:01 | 32.72065 | -80.09201 | 32084 ft | 432 kts | 206° |
| 2026-05-08 12:01 | 32.66206 | -80.11022 | 32081 ft | 433 kts | 206° |
| 2026-05-08 12:02 | 32.60384 | -80.12824 | 32074 ft | 433 kts | 206° |
| 2026-05-08 12:02 | 32.54561 | -80.14635 | 32065 ft | 432 kts | 207° |
| 2026-05-08 12:03 | 32.48740 | -80.16450 | 32035 ft | 433 kts | 206° |
| 2026-05-08 12:03 | 32.42903 | -80.18254 | 32040 ft | 433 kts | 206° |
| 2026-05-08 12:04 | 32.37063 | -80.20050 | 32031 ft | 434 kts | 206° |
| 2026-05-08 12:04 | 32.31225 | -80.21841 | 32042 ft | 433 kts | 206° |
| 2026-05-08 12:05 | 32.25393 | -80.23643 | 32039 ft | 433 kts | 206° |
| 2026-05-08 12:05 | 32.19555 | -80.25454 | 32041 ft | 434 kts | 206° |
| 2026-05-08 12:06 | 32.13707 | -80.27254 | 32040 ft | 434 kts | 206° |
| 2026-05-08 12:06 | 32.07857 | -80.29043 | 32041 ft | 435 kts | 206° |
| 2026-05-08 12:07 | 32.02041 | -80.30815 | 32043 ft | 435 kts | 206° |
| 2026-05-08 12:07 | 31.96191 | -80.32613 | 32012 ft | 435 kts | 206° |
| 2026-05-08 12:08 | 31.90317 | -80.34422 | 32040 ft | 437 kts | 206° |
| 2026-05-08 12:08 | 31.84433 | -80.36210 | 32040 ft | 437 kts | 206° |
| 2026-05-08 12:09 | 31.78542 | -80.38001 | 32043 ft | 437 kts | 206° |
| 2026-05-08 12:09 | 31.72655 | -80.39797 | 32043 ft | 437 kts | 206° |
| 2026-05-08 12:10 | 31.66760 | -80.41601 | 32047 ft | 439 kts | 205° |
| 2026-05-08 12:10 | 31.60843 | -80.43399 | 32046 ft | 439 kts | 205° |
| 2026-05-08 12:11 | 31.54923 | -80.45195 | 32046 ft | 440 kts | 205° |
| 2026-05-08 12:11 | 31.49000 | -80.46980 | 32046 ft | 440 kts | 205° |
| 2026-05-08 12:12 | 31.43076 | -80.48772 | 32013 ft | 440 kts | 205° |
| 2026-05-08 12:12 | 31.37139 | -80.50574 | 32046 ft | 441 kts | 205° |
| 2026-05-08 12:13 | 31.31193 | -80.52368 | 32046 ft | 441 kts | 205° |
| 2026-05-08 12:13 | 31.25246 | -80.54156 | 32048 ft | 441 kts | 205° |
| 2026-05-08 12:14 | 31.19304 | -80.55945 | 32045 ft | 441 kts | 205° |
| 2026-05-08 12:14 | 31.13362 | -80.57732 | 32050 ft | 441 kts | 204° |
| 2026-05-08 12:15 | 31.07417 | -80.59517 | 32039 ft | 441 kts | 204° |
| 2026-05-08 12:15 | 31.01471 | -80.61301 | 32049 ft | 441 kts | 204° |
| 2026-05-08 12:16 | 30.95525 | -80.63082 | 32036 ft | 441 kts | 204° |
| 2026-05-08 12:16 | 30.89580 | -80.64859 | 32016 ft | 441 kts | 204° |
| 2026-05-08 12:17 | 30.83626 | -80.66633 | 32037 ft | 442 kts | 204° |
| 2026-05-08 12:17 | 30.77677 | -80.68412 | 32038 ft | 442 kts | 204° |
| 2026-05-08 12:18 | 30.71720 | -80.70187 | 32037 ft | 442 kts | 204° |
| 2026-05-08 12:18 | 30.65763 | -80.71959 | 32037 ft | 442 kts | 204° |
| 2026-05-08 12:19 | 30.59841 | -80.73726 | 32037 ft | 443 kts | 203° |
| 2026-05-08 12:19 | 30.53861 | -80.75509 | 32037 ft | 444 kts | 203° |
| 2026-05-08 12:20 | 30.47870 | -80.77277 | 32041 ft | 444 kts | 203° |
| 2026-05-08 12:20 | 30.41880 | -80.79044 | 32039 ft | 444 kts | 203° |
| 2026-05-08 12:21 | 30.35895 | -80.80816 | 32035 ft | 444 kts | 203° |
| 2026-05-08 12:21 | 30.29905 | -80.82584 | 32032 ft | 444 kts | 203° |
| 2026-05-08 12:22 | 30.24886 | -80.84067 | 32035 ft | 444 kts | 203° |
| 2026-05-08 12:22 | 30.18890 | -80.85835 | 32038 ft | 445 kts | 203° |
| 2026-05-08 12:23 | 30.12894 | -80.87599 | 32031 ft | 445 kts | 203° |
| 2026-05-08 12:23 | 30.06895 | -80.89359 | 32016 ft | 445 kts | 203° |
| 2026-05-08 12:24 | 30.00885 | -80.91120 | 32046 ft | 446 kts | 203° |
| 2026-05-08 12:24 | 29.94875 | -80.92883 | 32040 ft | 445 kts | 202° |
| 2026-05-08 12:25 | 29.88871 | -80.94636 | 32042 ft | 445 kts | 202° |
| 2026-05-08 12:25 | 29.82867 | -80.96396 | 32031 ft | 445 kts | 203° |
| 2026-05-08 12:26 | 29.76859 | -80.98153 | 32034 ft | 446 kts | 202° |
| 2026-05-08 12:26 | 29.70841 | -80.99912 | 32033 ft | 446 kts | 202° |
| 2026-05-08 12:27 | 29.64820 | -81.01671 | 32032 ft | 446 kts | 202° |
| 2026-05-08 12:27 | 29.58838 | -81.03405 | 32029 ft | 447 kts | 202° |
| 2026-05-08 12:28 | 29.52810 | -81.05156 | 32049 ft | 446 kts | 202° |
| 2026-05-08 12:28 | 29.46779 | -81.06905 | 32050 ft | 448 kts | 202° |
| 2026-05-08 12:29 | 29.40735 | -81.08654 | 32053 ft | 448 kts | 202° |
| 2026-05-08 12:29 | 29.34688 | -81.10409 | 32055 ft | 448 kts | 202° |
| 2026-05-08 12:30 | 29.28642 | -81.12159 | 32054 ft | 448 kts | 202° |
| 2026-05-08 12:30 | 29.22598 | -81.13905 | 32043 ft | 448 kts | 202° |
| 2026-05-08 12:31 | 29.16546 | -81.15655 | 32054 ft | 449 kts | 202° |
| 2026-05-08 12:31 | 29.10490 | -81.17398 | 32071 ft | 449 kts | 202° |
| 2026-05-08 12:32 | 29.04445 | -81.19132 | 32072 ft | 449 kts | 202° |
| 2026-05-08 12:32 | 28.98393 | -81.20871 | 32070 ft | 449 kts | 202° |
| 2026-05-08 12:33 | 28.92337 | -81.22617 | 32066 ft | 449 kts | 202° |
| 2026-05-08 12:33 | 28.86272 | -81.24362 | 32056 ft | 450 kts | 201° |
| 2026-05-08 12:34 | 28.80204 | -81.26100 | 32064 ft | 450 kts | 201° |
| 2026-05-08 12:34 | 28.74135 | -81.27836 | 32063 ft | 450 kts | 201° |
| 2026-05-08 12:35 | 28.68063 | -81.29567 | 32061 ft | 449 kts | 201° |
| 2026-05-08 12:35 | 28.61989 | -81.31292 | 32063 ft | 451 kts | 201° |
| 2026-05-08 12:36 | 28.55907 | -81.33032 | 32063 ft | 451 kts | 201° |
| 2026-05-08 12:36 | 28.49784 | -81.34642 | 32063 ft | 453 kts | 199° |
| 2026-05-08 12:37 | 28.43575 | -81.35980 | 32073 ft | 455 kts | 198° |
| 2026-05-08 12:37 | 28.37355 | -81.37272 | 32060 ft | 455 kts | 198° |
| 2026-05-08 12:38 | 28.31133 | -81.38621 | 32091 ft | 455 kts | 198° |
| 2026-05-08 12:38 | 28.24927 | -81.40015 | 32091 ft | 455 kts | 198° |
| 2026-05-08 12:39 | 28.18711 | -81.41413 | 32089 ft | 455 kts | 198° |
| 2026-05-08 12:39 | 28.12493 | -81.42788 | 32083 ft | 455 kts | 198° |
| 2026-05-08 12:40 | 28.06272 | -81.44160 | 32068 ft | 457 kts | 198° |
| 2026-05-08 12:40 | 28.00035 | -81.45541 | 32063 ft | 457 kts | 198° |
| 2026-05-08 12:41 | 27.93795 | -81.46918 | 32060 ft | 457 kts | 198° |
| 2026-05-08 12:41 | 27.87553 | -81.48293 | 32074 ft | 457 kts | 198° |
| 2026-05-08 12:42 | 27.81309 | -81.49671 | 32069 ft | 457 kts | 198° |
| 2026-05-08 12:42 | 27.75096 | -81.51033 | 32074 ft | 459 kts | 197° |
| 2026-05-08 12:43 | 27.68784 | -81.52412 | 32074 ft | 459 kts | 197° |
| 2026-05-08 12:43 | 27.62559 | -81.53778 | 32074 ft | 459 kts | 197° |
| 2026-05-08 12:44 | 27.56290 | -81.55152 | 32070 ft | 459 kts | 197° |
| 2026-05-08 12:44 | 27.50025 | -81.56532 | 32068 ft | 459 kts | 197° |
| 2026-05-08 12:45 | 27.43754 | -81.57902 | 32069 ft | 459 kts | 197° |
| 2026-05-08 12:45 | 27.37483 | -81.59268 | 32075 ft | 459 kts | 197° |
| 2026-05-08 12:46 | 27.31213 | -81.60634 | 32069 ft | 459 kts | 197° |
| 2026-05-08 12:46 | 27.24942 | -81.61999 | 32068 ft | 459 kts | 197° |
| 2026-05-08 12:47 | 27.18667 | -81.63368 | 32077 ft | 460 kts | 197° |
| 2026-05-08 12:47 | 27.12384 | -81.64737 | 32072 ft | 460 kts | 197° |
| 2026-05-08 12:48 | 27.06097 | -81.66100 | 32074 ft | 460 kts | 197° |
| 2026-05-08 12:48 | 26.99819 | -81.67458 | 32078 ft | 459 kts | 197° |
| 2026-05-08 12:49 | 26.93543 | -81.68821 | 32079 ft | 459 kts | 197° |
| 2026-05-08 12:49 | 26.87263 | -81.70183 | 32081 ft | 460 kts | 197° |
| 2026-05-08 12:50 | 26.80976 | -81.71543 | 32079 ft | 460 kts | 197° |
| 2026-05-08 12:50 | 26.74681 | -81.72903 | 32072 ft | 461 kts | 197° |
| 2026-05-08 12:51 | 26.65286 | -81.74917 | 32080 ft | 461 kts | 197° |
| 2026-05-08 12:52 | 26.58982 | -81.76269 | 32082 ft | 462 kts | 196° |
| 2026-05-08 12:52 | 26.52560 | -81.77053 | 32082 ft | 472 kts | 182° |
| 2026-05-08 12:52 | 26.49274 | -81.76623 | 32081 ft | 480 kts | 173° |
| 2026-05-08 12:53 | 26.42749 | -81.74944 | 32080 ft | 481 kts | 172° |
| 2026-05-08 12:53 | 26.36222 | -81.73270 | 32075 ft | 481 kts | 172° |
| 2026-05-08 12:54 | 26.29690 | -81.71604 | 32069 ft | 482 kts | 172° |
| 2026-05-08 12:54 | 26.23158 | -81.69935 | 32068 ft | 482 kts | 172° |
| 2026-05-08 12:55 | 26.16626 | -81.68273 | 32072 ft | 482 kts | 172° |
| 2026-05-08 12:55 | 26.10085 | -81.66608 | 32070 ft | 482 kts | 172° |
| 2026-05-08 12:56 | 26.03552 | -81.64946 | 32075 ft | 482 kts | 172° |
| 2026-05-08 12:56 | 25.97004 | -81.63272 | 32058 ft | 483 kts | 172° |
| 2026-05-08 12:57 | 25.90456 | -81.61607 | 32059 ft | 483 kts | 172° |
| 2026-05-08 12:57 | 25.83907 | -81.59953 | 32067 ft | 483 kts | 172° |
| 2026-05-08 12:58 | 25.77352 | -81.58296 | 32067 ft | 483 kts | 172° |
| 2026-05-08 12:58 | 25.70804 | -81.56637 | 32072 ft | 483 kts | 172° |
| 2026-05-08 12:59 | 25.64250 | -81.54985 | 32071 ft | 483 kts | 172° |
| 2026-05-08 12:59 | 25.57694 | -81.53324 | 32071 ft | 483 kts | 171° |
| 2026-05-08 13:00 | 25.51137 | -81.51689 | 32071 ft | 482 kts | 175° |
| 2026-05-08 13:00 | 25.44527 | -81.51316 | 32075 ft | 474 kts | 185° |
| 2026-05-08 13:01 | 25.37932 | -81.51379 | 32061 ft | 474 kts | 185° |
| 2026-05-08 13:01 | 25.31324 | -81.51425 | 32070 ft | 475 kts | 185° |
| 2026-05-08 13:02 | 25.24709 | -81.51477 | 32070 ft | 475 kts | 185° |
| 2026-05-08 13:02 | 25.18100 | -81.51528 | 32070 ft | 475 kts | 185° |
| 2026-05-08 13:03 | 25.11528 | -81.51575 | 32070 ft | 475 kts | 185° |
| 2026-05-08 13:03 | 25.04918 | -81.51622 | 32073 ft | 476 kts | 185° |
| 2026-05-08 13:04 | 24.98294 | -81.51671 | 32065 ft | 476 kts | 185° |
| 2026-05-08 13:04 | 24.91857 | -81.52777 | 32066 ft | 465 kts | 203° |
| 2026-05-08 13:05 | 24.86220 | -81.56026 | 32057 ft | 454 kts | 221° |
| 2026-05-08 13:05 | 24.81618 | -81.60708 | 32055 ft | 450 kts | 227° |
| 2026-05-08 13:06 | 24.77107 | -81.65492 | 32034 ft | 451 kts | 227° |
| 2026-05-08 13:06 | 24.72571 | -81.70275 | 32057 ft | 452 kts | 227° |
| 2026-05-08 13:07 | 24.68033 | -81.75060 | 32057 ft | 452 kts | 227° |
| 2026-05-08 13:07 | 24.64234 | -81.79075 | 32057 ft | 452 kts | 227° |
| 2026-05-08 13:08 | 24.59695 | -81.83861 | 32082 ft | 452 kts | 227° |
| 2026-05-08 13:08 | 24.55188 | -81.88612 | 32080 ft | 452 kts | 227° |
| 2026-05-08 13:09 | 24.50648 | -81.93387 | 32077 ft | 452 kts | 227° |
| 2026-05-08 13:09 | 24.46140 | -81.98196 | 32073 ft | 451 kts | 229° |
| 2026-05-08 13:10 | 24.41834 | -82.03199 | 32067 ft | 450 kts | 231° |
| 2026-05-08 13:10 | 24.37606 | -82.08271 | 32063 ft | 450 kts | 231° |
| 2026-05-08 13:11 | 24.33340 | -82.13306 | 32057 ft | 451 kts | 230° |
| 2026-05-08 13:11 | 24.29029 | -82.18300 | 32057 ft | 451 kts | 230° |
| 2026-05-08 13:12 | 24.24714 | -82.23283 | 32060 ft | 451 kts | 230° |
| 2026-05-08 13:12 | 24.20406 | -82.28276 | 32060 ft | 451 kts | 230° |
| 2026-05-08 13:13 | 24.16093 | -82.33270 | 32061 ft | 452 kts | 230° |
| 2026-05-08 13:13 | 24.11767 | -82.38282 | 32060 ft | 453 kts | 230° |
| 2026-05-08 13:14 | 24.07440 | -82.43289 | 32059 ft | 452 kts | 230° |
| 2026-05-08 13:14 | 24.03115 | -82.48281 | 32058 ft | 452 kts | 230° |
| 2026-05-08 13:15 | 23.98811 | -82.53295 | 32058 ft | 451 kts | 231° |
| 2026-05-08 13:15 | 23.94740 | -82.58510 | 32054 ft | 450 kts | 233° |
| 2026-05-08 13:16 | 23.90793 | -82.63819 | 32053 ft | 450 kts | 234° |
| 2026-05-08 13:16 | 23.86798 | -82.69108 | 32056 ft | 452 kts | 233° |
| 2026-05-08 13:17 | 23.82748 | -82.74364 | 32054 ft | 452 kts | 233° |
| 2026-05-08 13:17 | 23.78688 | -82.79610 | 32054 ft | 452 kts | 232° |
| 2026-05-08 13:18 | 23.74645 | -82.84855 | 32054 ft | 452 kts | 233° |
| 2026-05-08 13:18 | 23.70603 | -82.90105 | 32049 ft | 452 kts | 233° |
| 2026-05-08 13:19 | 23.66555 | -82.95342 | 32049 ft | 451 kts | 232° |
| 2026-05-08 13:19 | 23.62503 | -83.00577 | 32048 ft | 451 kts | 232° |
| 2026-05-08 13:20 | 23.58456 | -83.05810 | 32039 ft | 452 kts | 232° |
| 2026-05-08 13:20 | 23.54396 | -83.11058 | 32046 ft | 453 kts | 232° |
| 2026-05-08 13:21 | 23.50327 | -83.16297 | 32046 ft | 453 kts | 232° |
| 2026-05-08 13:21 | 23.46259 | -83.21530 | 32047 ft | 452 kts | 232° |
| 2026-05-08 13:22 | 23.42196 | -83.26756 | 32047 ft | 452 kts | 232° |
| 2026-05-08 13:22 | 23.38126 | -83.31980 | 32047 ft | 452 kts | 232° |
| 2026-05-08 13:23 | 23.34060 | -83.37203 | 32045 ft | 452 kts | 232° |
| 2026-05-08 13:23 | 23.29992 | -83.42420 | 32046 ft | 452 kts | 232° |
| 2026-05-08 13:24 | 23.25912 | -83.47635 | 32047 ft | 453 kts | 232° |
| 2026-05-08 13:24 | 23.21824 | -83.52863 | 32046 ft | 454 kts | 232° |
| 2026-05-08 13:25 | 23.17739 | -83.58086 | 32046 ft | 453 kts | 232° |
| 2026-05-08 13:25 | 23.13652 | -83.63297 | 32043 ft | 453 kts | 232° |
| 2026-05-08 13:26 | 23.09564 | -83.68503 | 32047 ft | 453 kts | 232° |
| 2026-05-08 13:26 | 23.05477 | -83.73709 | 32046 ft | 453 kts | 232° |
| 2026-05-08 13:27 | 23.01386 | -83.78913 | 32046 ft | 453 kts | 232° |
| 2026-05-08 13:27 | 22.97324 | -83.84081 | 32040 ft | 454 kts | 232° |
| 2026-05-08 13:28 | 22.93222 | -83.89292 | 32047 ft | 454 kts | 232° |
| 2026-05-08 13:28 | 22.89115 | -83.94497 | 32040 ft | 454 kts | 232° |
| 2026-05-08 13:29 | 22.84980 | -83.99732 | 32042 ft | 454 kts | 232° |
| 2026-05-08 13:29 | 22.80908 | -84.04892 | 32044 ft | 453 kts | 232° |
| 2026-05-08 13:30 | 22.76812 | -84.10087 | 32049 ft | 454 kts | 232° |
| 2026-05-08 13:30 | 22.72712 | -84.15283 | 32047 ft | 453 kts | 232° |
| 2026-05-08 13:31 | 22.68657 | -84.20511 | 32047 ft | 453 kts | 232° |
| 2026-05-08 13:31 | 22.64616 | -84.25769 | 32039 ft | 455 kts | 232° |
| 2026-05-08 13:32 | 22.60561 | -84.31025 | 32045 ft | 455 kts | 232° |
| 2026-05-08 13:32 | 22.56496 | -84.36260 | 32050 ft | 454 kts | 232° |
| 2026-05-08 13:33 | 22.52439 | -84.41496 | 32039 ft | 454 kts | 232° |
| 2026-05-08 13:33 | 22.48386 | -84.46730 | 32042 ft | 454 kts | 232° |
| 2026-05-08 13:34 | 22.44326 | -84.51958 | 32039 ft | 454 kts | 232° |
| 2026-05-08 13:34 | 22.40260 | -84.57183 | 32039 ft | 454 kts | 232° |
| 2026-05-08 13:35 | 22.36196 | -84.62404 | 32031 ft | 454 kts | 232° |
| 2026-05-08 13:35 | 22.32121 | -84.67640 | 32037 ft | 456 kts | 232° |
| 2026-05-08 13:36 | 22.28036 | -84.72875 | 32039 ft | 455 kts | 232° |
| 2026-05-08 13:36 | 22.23957 | -84.78104 | 32032 ft | 455 kts | 232° |
| 2026-05-08 13:37 | 22.19884 | -84.83328 | 32035 ft | 455 kts | 232° |
| 2026-05-08 13:37 | 22.15801 | -84.88552 | 32031 ft | 455 kts | 232° |
| 2026-05-08 13:38 | 22.11713 | -84.93766 | 32036 ft | 455 kts | 232° |
| 2026-05-08 13:38 | 22.07623 | -84.98982 | 32032 ft | 455 kts | 232° |
| 2026-05-08 13:39 | 22.03533 | -85.04201 | 32036 ft | 456 kts | 232° |
| 2026-05-08 13:39 | 21.99436 | -85.09420 | 32023 ft | 456 kts | 231° |
| 2026-05-08 13:40 | 21.95348 | -85.14639 | 32030 ft | 456 kts | 232° |
| 2026-05-08 13:40 | 21.91283 | -85.19874 | 32019 ft | 456 kts | 232° |
| 2026-05-08 13:41 | 21.87228 | -85.25125 | 32033 ft | 456 kts | 232° |
| 2026-05-08 13:41 | 21.83176 | -85.30370 | 32012 ft | 456 kts | 232° |
| 2026-05-08 13:42 | 21.79109 | -85.35602 | 32032 ft | 456 kts | 232° |
| 2026-05-08 13:42 | 21.75033 | -85.40821 | 32020 ft | 456 kts | 232° |
| 2026-05-08 13:43 | 21.70958 | -85.46044 | 32029 ft | 456 kts | 231° |
| 2026-05-08 13:43 | 21.66894 | -85.51274 | 32025 ft | 456 kts | 231° |
| 2026-05-08 13:44 | 21.62849 | -85.56460 | 32029 ft | 456 kts | 231° |
| 2026-05-08 13:44 | 21.58763 | -85.61669 | 32022 ft | 456 kts | 231° |
| 2026-05-08 13:45 | 21.54657 | -85.66912 | 32025 ft | 456 kts | 231° |
| 2026-05-08 13:45 | 21.50607 | -85.72092 | 32014 ft | 456 kts | 231° |
| 2026-05-08 13:46 | 21.46489 | -85.77265 | 32022 ft | 456 kts | 230° |
| 2026-05-08 13:46 | 21.42253 | -85.82336 | 32010 ft | 456 kts | 229° |
| 2026-05-08 13:47 | 21.37992 | -85.87378 | 32021 ft | 456 kts | 229° |
| 2026-05-08 13:47 | 21.33751 | -85.92443 | 32018 ft | 456 kts | 230° |
| 2026-05-08 13:48 | 21.29530 | -85.97523 | 32019 ft | 456 kts | 230° |
| 2026-05-08 13:48 | 21.25308 | -86.02597 | 32002 ft | 456 kts | 230° |
| 2026-05-08 13:49 | 21.21077 | -86.07663 | 32015 ft | 456 kts | 230° |
| 2026-05-08 13:49 | 21.16841 | -86.12721 | 32016 ft | 456 kts | 230° |
| 2026-05-08 13:50 | 21.12603 | -86.17785 | 32005 ft | 456 kts | 230° |
| 2026-05-08 13:50 | 21.08377 | -86.22842 | 32010 ft | 456 kts | 229° |
| 2026-05-08 13:51 | 21.04854 | -86.27051 | 32007 ft | 457 kts | 229° |
| 2026-05-08 13:51 | 21.00611 | -86.32113 | 32008 ft | 457 kts | 229° |
| 2026-05-08 13:52 | 20.96367 | -86.37167 | 32005 ft | 457 kts | 229° |
| 2026-05-08 13:52 | 20.92118 | -86.42223 | 32004 ft | 457 kts | 229° |
| 2026-05-08 13:53 | 20.87875 | -86.47278 | 32003 ft | 457 kts | 229° |
| 2026-05-08 13:53 | 20.83624 | -86.52328 | 32003 ft | 457 kts | 229° |
| 2026-05-08 13:54 | 20.79368 | -86.57367 | 31998 ft | 457 kts | 229° |
| 2026-05-08 13:54 | 20.75108 | -86.62403 | 31999 ft | 457 kts | 229° |
| 2026-05-08 13:55 | 20.70852 | -86.67430 | 31999 ft | 456 kts | 229° |
| 2026-05-08 13:56 | 20.64472 | -86.74978 | 32004 ft | 456 kts | 229° |
| 2026-05-08 13:56 | 20.60220 | -86.80010 | 32005 ft | 456 kts | 229° |
| 2026-05-08 13:57 | 20.55964 | -86.85037 | 32005 ft | 456 kts | 229° |
| 2026-05-08 13:57 | 20.51576 | -86.89931 | 32005 ft | 457 kts | 221° |
| 2026-05-08 13:58 | 20.46122 | -86.93436 | 32010 ft | 461 kts | 206° |
| 2026-05-08 13:58 | 20.40263 | -86.96231 | 32006 ft | 461 kts | 205° |
| 2026-05-08 13:59 | 20.34408 | -86.99044 | 31999 ft | 461 kts | 206° |
| 2026-05-08 13:59 | 20.28560 | -87.01863 | 31999 ft | 461 kts | 206° |
| 2026-05-08 14:00 | 20.22720 | -87.04674 | 31999 ft | 461 kts | 206° |
| 2026-05-08 14:00 | 20.16867 | -87.07483 | 32001 ft | 461 kts | 206° |
| 2026-05-08 14:01 | 20.11016 | -87.10280 | 31994 ft | 461 kts | 206° |
| 2026-05-08 14:01 | 20.05154 | -87.13081 | 31995 ft | 462 kts | 206° |
| 2026-05-08 14:02 | 19.99295 | -87.15887 | 31993 ft | 462 kts | 206° |
| 2026-05-08 14:02 | 19.93435 | -87.18697 | 31993 ft | 462 kts | 206° |
| 2026-05-08 14:03 | 19.87574 | -87.21495 | 31988 ft | 461 kts | 206° |
| 2026-05-08 14:03 | 19.81757 | -87.24280 | 31990 ft | 461 kts | 206° |
| 2026-05-08 14:04 | 19.75903 | -87.27091 | 31985 ft | 462 kts | 206° |
| 2026-05-08 14:04 | 19.70023 | -87.29899 | 31987 ft | 464 kts | 206° |
| 2026-05-08 14:05 | 19.64131 | -87.32700 | 31986 ft | 464 kts | 205° |
| 2026-05-08 14:05 | 19.58239 | -87.35493 | 31988 ft | 463 kts | 205° |
| 2026-05-08 14:06 | 19.52352 | -87.38285 | 31988 ft | 463 kts | 206° |
| 2026-05-08 14:06 | 19.46475 | -87.41080 | 31981 ft | 463 kts | 205° |
| 2026-05-08 14:07 | 19.40592 | -87.43879 | 31979 ft | 465 kts | 205° |
| 2026-05-08 14:07 | 19.34681 | -87.46694 | 31980 ft | 466 kts | 205° |
| 2026-05-08 14:08 | 19.28766 | -87.49499 | 31979 ft | 466 kts | 205° |
| 2026-05-08 14:08 | 19.22847 | -87.52295 | 31977 ft | 466 kts | 205° |
| 2026-05-08 14:09 | 19.16929 | -87.55095 | 31978 ft | 466 kts | 205° |
| 2026-05-08 14:09 | 19.11010 | -87.57894 | 31977 ft | 466 kts | 205° |
| 2026-05-08 14:10 | 19.05078 | -87.60694 | 31977 ft | 468 kts | 205° |
| 2026-05-08 14:10 | 18.99132 | -87.63506 | 31977 ft | 468 kts | 205° |
| 2026-05-08 14:11 | 18.93190 | -87.66311 | 31973 ft | 468 kts | 205° |
| 2026-05-08 14:11 | 18.87280 | -87.69102 | 31972 ft | 468 kts | 205° |
| 2026-05-08 14:12 | 18.81335 | -87.71907 | 31969 ft | 468 kts | 205° |
| 2026-05-08 14:12 | 18.75398 | -87.74695 | 31963 ft | 467 kts | 205° |
| 2026-05-08 14:13 | 18.69452 | -87.77487 | 31966 ft | 468 kts | 205° |
| 2026-05-08 14:13 | 18.63506 | -87.80285 | 31966 ft | 468 kts | 205° |
| 2026-05-08 14:14 | 18.57555 | -87.83081 | 31969 ft | 468 kts | 205° |
| 2026-05-08 14:14 | 18.51603 | -87.85866 | 31969 ft | 468 kts | 205° |
| 2026-05-08 14:15 | 18.45644 | -87.88652 | 31968 ft | 468 kts | 205° |
| 2026-05-08 14:15 | 18.39695 | -87.91444 | 31962 ft | 469 kts | 205° |
| 2026-05-08 14:16 | 18.33725 | -87.94243 | 31967 ft | 470 kts | 204° |
| 2026-05-08 14:16 | 18.27752 | -87.97038 | 31966 ft | 470 kts | 204° |
| 2026-05-08 14:17 | 18.21775 | -87.99825 | 31966 ft | 470 kts | 204° |
| 2026-05-08 14:17 | 18.15800 | -88.02624 | 31966 ft | 470 kts | 204° |
| 2026-05-08 14:18 | 18.09837 | -88.05443 | 31961 ft | 470 kts | 205° |
| 2026-05-08 14:18 | 18.03895 | -88.08312 | 31961 ft | 470 kts | 205° |
| 2026-05-08 14:19 | 17.97965 | -88.11180 | 31956 ft | 469 kts | 205° |
| 2026-05-08 14:19 | 17.92028 | -88.14023 | 31958 ft | 469 kts | 205° |
| 2026-05-08 14:20 | 17.86070 | -88.16802 | 31939 ft | 468 kts | 204° |
| 2026-05-08 14:20 | 17.80090 | -88.19512 | 31939 ft | 468 kts | 203° |
| 2026-05-08 14:21 | 17.74099 | -88.22221 | 31938 ft | 468 kts | 204° |
| 2026-05-08 14:21 | 17.68108 | -88.24940 | 31937 ft | 470 kts | 204° |
| 2026-05-08 14:22 | 17.62107 | -88.27678 | 31936 ft | 470 kts | 204° |
| 2026-05-08 14:22 | 17.56103 | -88.30413 | 31962 ft | 470 kts | 202° |
| 2026-05-08 14:23 | 17.49820 | -88.32068 | 31963 ft | 470 kts | 188° |
| 2026-05-08 14:23 | 17.43344 | -88.33079 | 31959 ft | 471 kts | 188° |
| 2026-05-08 14:24 | 17.36864 | -88.34106 | 31950 ft | 471 kts | 188° |
| 2026-05-08 14:24 | 17.30372 | -88.35141 | 31951 ft | 472 kts | 188° |
| 2026-05-08 14:25 | 17.23873 | -88.36179 | 31947 ft | 472 kts | 188° |
| 2026-05-08 14:25 | 17.17374 | -88.37214 | 31955 ft | 472 kts | 188° |
| 2026-05-08 14:26 | 17.10872 | -88.38245 | 31955 ft | 472 kts | 188° |
| 2026-05-08 14:26 | 17.04363 | -88.39196 | 31957 ft | 472 kts | 187° |
| 2026-05-08 14:27 | 16.97842 | -88.40107 | 31961 ft | 473 kts | 187° |
| 2026-05-08 14:27 | 16.91315 | -88.41025 | 31961 ft | 473 kts | 187° |
| 2026-05-08 14:28 | 16.84796 | -88.41967 | 31950 ft | 473 kts | 187° |
| 2026-05-08 14:28 | 16.78282 | -88.42962 | 31949 ft | 473 kts | 188° |
| 2026-05-08 14:29 | 16.71773 | -88.43977 | 31936 ft | 473 kts | 188° |
| 2026-05-08 14:29 | 16.65258 | -88.44985 | 31933 ft | 473 kts | 188° |
| 2026-05-08 14:30 | 16.58739 | -88.45977 | 31915 ft | 473 kts | 188° |
| 2026-05-08 14:30 | 16.52218 | -88.46963 | 31917 ft | 474 kts | 188° |
| 2026-05-08 14:31 | 16.45704 | -88.47949 | 31907 ft | 472 kts | 187° |
| 2026-05-08 14:31 | 16.39204 | -88.48939 | 31909 ft | 472 kts | 188° |
| 2026-05-08 14:32 | 16.29456 | -88.50428 | 31887 ft | 472 kts | 187° |
| 2026-05-08 14:32 | 16.22953 | -88.51414 | 31889 ft | 472 kts | 187° |
| 2026-05-08 14:33 | 16.16454 | -88.52397 | 31876 ft | 472 kts | 187° |
| 2026-05-08 14:33 | 16.09947 | -88.53387 | 31877 ft | 472 kts | 187° |
| 2026-05-08 14:34 | 16.03442 | -88.54372 | 31874 ft | 472 kts | 187° |
| 2026-05-08 14:34 | 15.96981 | -88.55347 | 31880 ft | 473 kts | 187° |
| 2026-05-08 14:35 | 15.90469 | -88.56330 | 31884 ft | 473 kts | 187° |
| 2026-05-08 14:35 | 15.83959 | -88.57311 | 31891 ft | 473 kts | 187° |
| 2026-05-08 14:36 | 15.77448 | -88.58296 | 31893 ft | 473 kts | 188° |
| 2026-05-08 14:36 | 15.70989 | -88.59584 | 31895 ft | 474 kts | 193° |
| 2026-05-08 14:37 | 15.64608 | -88.61301 | 31893 ft | 474 kts | 193° |
| 2026-05-08 14:37 | 15.58229 | -88.63015 | 31895 ft | 474 kts | 194° |
| 2026-05-08 14:38 | 15.51848 | -88.64733 | 31900 ft | 474 kts | 194° |
| 2026-05-08 14:38 | 15.46500 | -88.66170 | 31937 ft | 474 kts | 194° |
| 2026-05-08 14:39 | 15.40162 | -88.67861 | 31934 ft | 474 kts | 194° |
| 2026-05-08 14:39 | 15.33779 | -88.69567 | 31967 ft | 474 kts | 194° |
| 2026-05-08 14:40 | 15.27404 | -88.71281 | 31969 ft | 474 kts | 193° |
| 2026-05-08 14:40 | 15.21019 | -88.72993 | 32000 ft | 474 kts | 193° |
| 2026-05-08 14:41 | 15.14626 | -88.74674 | 32000 ft | 474 kts | 193° |
| 2026-05-08 14:41 | 15.08219 | -88.76280 | 32000 ft | 474 kts | 192° |
| 2026-05-08 14:42 | 15.01808 | -88.77884 | 32038 ft | 474 kts | 193° |
| 2026-05-08 14:42 | 14.95406 | -88.79503 | 32038 ft | 474 kts | 193° |
| 2026-05-08 14:43 | 14.89003 | -88.81127 | 32075 ft | 474 kts | 192° |
| 2026-05-08 14:43 | 14.82596 | -88.82747 | 32076 ft | 474 kts | 192° |
| 2026-05-08 14:44 | 14.76193 | -88.84371 | 32080 ft | 474 kts | 192° |
| 2026-05-08 14:44 | 14.69794 | -88.85999 | 32079 ft | 473 kts | 192° |
| 2026-05-08 14:45 | 14.63417 | -88.87616 | 32109 ft | 471 kts | 192° |
| 2026-05-08 14:45 | 14.57048 | -88.89218 | 32108 ft | 471 kts | 192° |
| 2026-05-08 14:46 | 14.50721 | -88.90810 | 32108 ft | 471 kts | 192° |
| 2026-05-08 14:46 | 14.44359 | -88.92421 | 32111 ft | 471 kts | 193° |
| 2026-05-08 14:47 | 14.37954 | -88.94046 | 32111 ft | 471 kts | 192° |
| 2026-05-08 14:47 | 14.31588 | -88.95651 | 32090 ft | 471 kts | 192° |
| 2026-05-08 14:48 | 14.25225 | -88.97269 | 32090 ft | 471 kts | 193° |
| 2026-05-08 14:48 | 14.18867 | -88.98906 | 32065 ft | 471 kts | 193° |
| 2026-05-08 14:49 | 14.12506 | -89.00548 | 32066 ft | 471 kts | 193° |
| 2026-05-08 14:49 | 14.06097 | -89.01632 | 32052 ft | 470 kts | 184° |
| 2026-05-08 14:50 | 13.99589 | -89.02296 | 32046 ft | 470 kts | 184° |
| 2026-05-08 14:50 | 13.93079 | -89.02954 | 32045 ft | 470 kts | 184° |
| 2026-05-08 14:51 | 13.86573 | -89.03616 | 32035 ft | 470 kts | 184° |
| 2026-05-08 14:51 | 13.80065 | -89.04279 | 32036 ft | 470 kts | 184° |
| 2026-05-08 14:52 | 13.70303 | -89.05289 | 31972 ft | 470 kts | 184° |
| 2026-05-08 14:53 | 13.63792 | -89.05953 | 31923 ft | 470 kts | 184° |
| 2026-05-08 14:53 | 13.60539 | -89.06284 | 32050 ft | 470 kts | 184° |
| 2026-05-08 14:53 | 13.57281 | -89.06616 | 32042 ft | 470 kts | 184° |
| 2026-05-08 14:54 | 13.50772 | -89.07297 | 32022 ft | 470 kts | 187° |
| 2026-05-08 14:54 | 13.47608 | -89.08152 | 31982 ft | 473 kts | 201° |
| 2026-05-08 14:54 | 13.44749 | -89.09815 | 31967 ft | 476 kts | 217° |
| 2026-05-08 14:54 | 13.42390 | -89.12199 | 31951 ft | 478 kts | 232° |
| 2026-05-08 14:55 | 13.40698 | -89.15141 | 31941 ft | 480 kts | 247° |
| 2026-05-08 14:55 | 13.38379 | -89.21590 | 31920 ft | 482 kts | 249° |
| 2026-05-08 14:56 | 13.36079 | -89.28060 | 31916 ft | 482 kts | 249° |
| 2026-05-08 14:56 | 13.33768 | -89.34526 | 31897 ft | 482 kts | 249° |
| 2026-05-08 14:57 | 13.31466 | -89.40948 | 31904 ft | 482 kts | 249° |
| 2026-05-08 14:57 | 13.29151 | -89.47405 | 31903 ft | 482 kts | 249° |
| 2026-05-08 14:58 | 13.26830 | -89.53867 | 31902 ft | 482 kts | 249° |
| 2026-05-08 14:58 | 13.24519 | -89.60325 | 31919 ft | 482 kts | 249° |
| 2026-05-08 14:58 | 13.23732 | -89.63665 | 31911 ft | 482 kts | 266° |
| 2026-05-08 14:59 | 13.24039 | -89.67075 | 31922 ft | 482 kts | 287° |
| 2026-05-08 14:59 | 13.27768 | -89.72617 | 31934 ft | 479 kts | 327° |
| 2026-05-08 14:59 | 13.30743 | -89.74096 | 31936 ft | 476 kts | 347° |
| 2026-05-08 15:00 | 13.34007 | -89.74447 | 31929 ft | 472 kts | 7° |
| 2026-05-08 15:00 | 13.37161 | -89.73637 | 31953 ft | 468 kts | 27° |
| 2026-05-08 15:00 | 13.39826 | -89.71776 | 31947 ft | 463 kts | 47° |
| 2026-05-08 15:00 | 13.41674 | -89.69104 | 31942 ft | 460 kts | 67° |
| 2026-05-08 15:01 | 13.42492 | -89.65954 | 31949 ft | 458 kts | 86° |
| 2026-05-08 15:01 | 13.42664 | -89.62686 | 31939 ft | 455 kts | 88° |
| 2026-05-08 15:01 | 13.42810 | -89.59495 | 31939 ft | 439 kts | 88° |
| 2026-05-08 15:01 | 13.42951 | -89.56397 | 31946 ft | 434 kts | 88° |
| 2026-05-08 15:02 | 13.43237 | -89.50114 | 31935 ft | 447 kts | 88° |
| 2026-05-08 15:02 | 13.43528 | -89.43648 | 31933 ft | 458 kts | 88° |
| 2026-05-08 15:03 | 13.43823 | -89.37082 | 31917 ft | 461 kts | 88° |
| 2026-05-08 15:03 | 13.44116 | -89.30551 | 31943 ft | 461 kts | 88° |
| 2026-05-08 15:04 | 13.44411 | -89.23976 | 31957 ft | 461 kts | 88° |
| 2026-05-08 15:04 | 13.44706 | -89.17398 | 31960 ft | 461 kts | 88° |
| 2026-05-08 15:05 | 13.45001 | -89.10813 | 31963 ft | 461 kts | 88° |
| 2026-05-08 15:05 | 13.45298 | -89.04234 | 31886 ft | 461 kts | 87° |
| 2026-05-08 15:06 | 13.45783 | -89.00987 | 31891 ft | 462 kts | 74° |
| 2026-05-08 15:06 | 13.46964 | -88.97921 | 31896 ft | 463 kts | 60° |
| 2026-05-08 15:06 | 13.49020 | -88.95387 | 31891 ft | 465 kts | 40° |
| 2026-05-08 15:06 | 13.51820 | -88.93734 | 31907 ft | 469 kts | 19° |
| 2026-05-08 15:07 | 13.55032 | -88.93164 | 31914 ft | 473 kts | 359° |
| 2026-05-08 15:07 | 13.58310 | -88.93602 | 31924 ft | 476 kts | 351° |
| 2026-05-08 15:07 | 13.61597 | -88.93857 | 31924 ft | 473 kts | 7° |
| 2026-05-08 15:07 | 13.64747 | -88.93026 | 31961 ft | 469 kts | 27° |
| 2026-05-08 15:08 | 13.67415 | -88.91146 | 31971 ft | 465 kts | 47° |
| 2026-05-08 15:08 | 13.68745 | -88.89436 | 31981 ft | 462 kts | 60° |
| 2026-05-08 15:08 | 13.70159 | -88.85306 | 32000 ft | 460 kts | 79° |
| 2026-05-08 15:08 | 13.70792 | -88.82075 | 32003 ft | 461 kts | 79° |
| 2026-05-08 15:09 | 13.72076 | -88.75610 | 31999 ft | 461 kts | 79° |
| 2026-05-08 15:09 | 13.73384 | -88.69150 | 31999 ft | 461 kts | 78° |
| 2026-05-08 15:10 | 13.74717 | -88.62693 | 32000 ft | 461 kts | 78° |
| 2026-05-08 15:10 | 13.76076 | -88.56244 | 31986 ft | 461 kts | 78° |
| 2026-05-08 15:11 | 13.77459 | -88.49803 | 31983 ft | 461 kts | 78° |
| 2026-05-08 15:11 | 13.78859 | -88.43405 | 31999 ft | 461 kts | 77° |
| 2026-05-08 15:12 | 13.80293 | -88.36975 | 31996 ft | 461 kts | 77° |
| 2026-05-08 15:12 | 13.81752 | -88.30551 | 31996 ft | 461 kts | 77° |
| 2026-05-08 15:13 | 13.83247 | -88.24085 | 31994 ft | 461 kts | 77° |
| 2026-05-08 15:13 | 13.84757 | -88.17672 | 31994 ft | 461 kts | 77° |
| 2026-05-08 15:14 | 13.86293 | -88.11261 | 31988 ft | 462 kts | 76° |
| 2026-05-08 15:14 | 13.87846 | -88.04889 | 31988 ft | 461 kts | 76° |
| 2026-05-08 15:15 | 13.89427 | -87.98508 | 31981 ft | 460 kts | 76° |
| 2026-05-08 15:15 | 13.91032 | -87.92136 | 31981 ft | 460 kts | 75° |
| 2026-05-08 15:16 | 13.92662 | -87.85767 | 32009 ft | 460 kts | 75° |
| 2026-05-08 15:16 | 13.94315 | -87.79412 | 32008 ft | 460 kts | 75° |
| 2026-05-08 15:17 | 13.95993 | -87.73059 | 32006 ft | 460 kts | 75° |
| 2026-05-08 15:17 | 13.97694 | -87.66719 | 32033 ft | 459 kts | 74° |
| 2026-05-08 15:18 | 13.99411 | -87.60409 | 32029 ft | 457 kts | 74° |
| 2026-05-08 15:18 | 14.01154 | -87.54105 | 32081 ft | 458 kts | 74° |
| 2026-05-08 15:19 | 14.02920 | -87.47805 | 32096 ft | 457 kts | 73° |
| 2026-05-08 15:19 | 14.04706 | -87.41521 | 32113 ft | 457 kts | 73° |
| 2026-05-08 15:20 | 14.06518 | -87.35236 | 32106 ft | 458 kts | 73° |
| 2026-05-08 15:20 | 14.08356 | -87.28949 | 32107 ft | 460 kts | 73° |
| 2026-05-08 15:21 | 14.10229 | -87.22628 | 32122 ft | 461 kts | 72° |
| 2026-05-08 15:21 | 14.12125 | -87.16314 | 32122 ft | 461 kts | 72° |
| 2026-05-08 15:22 | 14.14044 | -87.10004 | 32121 ft | 461 kts | 72° |
| 2026-05-08 15:22 | 14.15985 | -87.03705 | 32105 ft | 461 kts | 72° |
| 2026-05-08 15:23 | 14.17949 | -86.97412 | 32106 ft | 461 kts | 72° |
| 2026-05-08 15:23 | 14.19933 | -86.91129 | 32093 ft | 461 kts | 71° |
| 2026-05-08 15:24 | 14.21939 | -86.84850 | 32094 ft | 462 kts | 71° |
| 2026-05-08 15:24 | 14.23971 | -86.78567 | 32075 ft | 462 kts | 71° |
| 2026-05-08 15:25 | 14.26007 | -86.72339 | 32078 ft | 462 kts | 71° |
| 2026-05-08 15:25 | 14.28075 | -86.66080 | 32080 ft | 462 kts | 70° |
| 2026-05-08 15:26 | 14.30165 | -86.59821 | 32052 ft | 462 kts | 70° |
| 2026-05-08 15:26 | 14.32271 | -86.53563 | 32052 ft | 462 kts | 70° |
| 2026-05-08 15:27 | 14.34030 | -86.48368 | 32047 ft | 462 kts | 70° |
| 2026-05-08 15:27 | 14.36155 | -86.42116 | 32046 ft | 462 kts | 70° |
| 2026-05-08 15:28 | 14.38289 | -86.35867 | 32043 ft | 462 kts | 70° |
| 2026-05-08 15:28 | 14.40400 | -86.29605 | 32014 ft | 462 kts | 74° |
| 2026-05-08 15:29 | 14.40788 | -86.26331 | 32012 ft | 462 kts | 94° |
| 2026-05-08 15:29 | 14.40044 | -86.23116 | 32016 ft | 465 kts | 114° |
| 2026-05-08 15:29 | 14.38252 | -86.20348 | 32016 ft | 468 kts | 134° |
| 2026-05-08 15:29 | 14.35641 | -86.18349 | 32021 ft | 471 kts | 150° |
| 2026-05-08 15:30 | 14.30589 | -86.14191 | 32002 ft | 467 kts | 121° |
| 2026-05-08 15:30 | 14.29311 | -86.11148 | 32002 ft | 463 kts | 101° |
| 2026-05-08 15:30 | 14.29143 | -86.07860 | 32001 ft | 460 kts | 81° |
| 2026-05-08 15:31 | 14.30086 | -86.04727 | 32005 ft | 460 kts | 63° |
| 2026-05-08 15:31 | 14.31524 | -86.01779 | 32002 ft | 461 kts | 63° |
| 2026-05-08 15:31 | 14.34411 | -85.95864 | 32004 ft | 462 kts | 63° |
| 2026-05-08 15:32 | 14.37281 | -85.89940 | 32002 ft | 462 kts | 63° |
| 2026-05-08 15:32 | 14.40136 | -85.84001 | 31997 ft | 462 kts | 63° |
| 2026-05-08 15:33 | 14.42971 | -85.78054 | 31997 ft | 462 kts | 64° |
| 2026-05-08 15:33 | 14.45786 | -85.72099 | 31997 ft | 462 kts | 64° |
| 2026-05-08 15:34 | 14.48583 | -85.66132 | 31997 ft | 462 kts | 64° |
| 2026-05-08 15:34 | 14.51361 | -85.60155 | 31997 ft | 462 kts | 64° |
| 2026-05-08 15:35 | 14.54103 | -85.54205 | 31994 ft | 462 kts | 64° |
| 2026-05-08 15:35 | 14.56842 | -85.48210 | 31994 ft | 462 kts | 64° |
| 2026-05-08 15:36 | 14.59562 | -85.42204 | 31991 ft | 462 kts | 64° |
| 2026-05-08 15:36 | 14.62259 | -85.36195 | 31990 ft | 461 kts | 65° |
| 2026-05-08 15:37 | 14.64933 | -85.30184 | 31991 ft | 461 kts | 65° |
| 2026-05-08 15:37 | 14.67587 | -85.24163 | 31983 ft | 461 kts | 65° |
| 2026-05-08 15:38 | 14.70225 | -85.18126 | 31984 ft | 461 kts | 65° |
| 2026-05-08 15:38 | 14.72841 | -85.12084 | 31980 ft | 461 kts | 65° |
| 2026-05-08 15:39 | 14.75437 | -85.06033 | 31973 ft | 461 kts | 66° |
| 2026-05-08 15:39 | 14.78012 | -84.99974 | 31974 ft | 461 kts | 66° |
| 2026-05-08 15:40 | 14.80571 | -84.93897 | 31971 ft | 461 kts | 66° |
| 2026-05-08 15:40 | 14.83108 | -84.87813 | 31975 ft | 461 kts | 66° |
| 2026-05-08 15:41 | 14.85623 | -84.81725 | 31960 ft | 461 kts | 66° |
| 2026-05-08 15:41 | 14.88121 | -84.75618 | 31973 ft | 462 kts | 66° |
| 2026-05-08 15:42 | 14.90587 | -84.69531 | 31969 ft | 462 kts | 67° |
| 2026-05-08 15:42 | 14.93048 | -84.63395 | 31960 ft | 462 kts | 67° |
| 2026-05-08 15:43 | 14.95487 | -84.57254 | 31960 ft | 462 kts | 67° |
| 2026-05-08 15:43 | 14.97905 | -84.51101 | 31955 ft | 462 kts | 67° |
| 2026-05-08 15:44 | 15.00302 | -84.44939 | 31957 ft | 462 kts | 67° |
| 2026-05-08 15:44 | 15.02676 | -84.38770 | 31958 ft | 462 kts | 68° |
| 2026-05-08 15:45 | 15.05030 | -84.32590 | 31949 ft | 462 kts | 68° |
| 2026-05-08 15:45 | 15.07362 | -84.26399 | 31950 ft | 462 kts | 68° |